sensor_id;sensor_type;location;lat;lon;timestamp;P1;durP1;ratioP1;P2;durP2;ratioP2
68449;SDS011;67758;39.572;2.652;2023-12-20T00:00:59;11.05;;;3.80;;
68449;SDS011;67758;39.572;2.652;2023-12-20T00:03:45;15.17;;;3.70;;
68449;SDS011;67758;39.572;2.652;2023-12-20T00:06:30;11.52;;;4.22;;
68449;SDS011;67758;39.572;2.652;2023-12-20T00:09:14;11.32;;;2.95;;
68449;SDS011;67758;39.572;2.652;2023-12-20T00:11:59;11.48;;;3.35;;
68449;SDS011;67758;39.572;2.652;2023-12-20T00:14:43;9.70;;;3.63;;
68449;SDS011;67758;39.572;2.652;2023-12-20T00:17:28;10.67;;;3.80;;
68449;SDS011;67758;39.572;2.652;2023-12-20T00:20:12;9.02;;;3.20;;
68449;SDS011;67758;39.572;2.652;2023-12-20T00:22:57;11.23;;;3.90;;
68449;SDS011;67758;39.572;2.652;2023-12-20T00:25:41;10.70;;;3.83;;
68449;SDS011;67758;39.572;2.652;2023-12-20T00:28:26;11.23;;;3.40;;
68449;SDS011;67758;39.572;2.652;2023-12-20T00:31:10;10.43;;;3.57;;
68449;SDS011;67758;39.572;2.652;2023-12-20T00:33:54;11.45;;;3.75;;
68449;SDS011;67758;39.572;2.652;2023-12-20T00:36:41;11.23;;;3.97;;
68449;SDS011;67758;39.572;2.652;2023-12-20T00:39:26;11.57;;;4.07;;
68449;SDS011;67758;39.572;2.652;2023-12-20T00:42:10;9.13;;;3.38;;
68449;SDS011;67758;39.572;2.652;2023-12-20T00:44:55;11.90;;;3.60;;
68449;SDS011;67758;39.572;2.652;2023-12-20T00:47:39;11.63;;;3.70;;
68449;SDS011;67758;39.572;2.652;2023-12-20T00:50:24;11.13;;;3.83;;
68449;SDS011;67758;39.572;2.652;2023-12-20T00:53:08;10.93;;;3.53;;
68449;SDS011;67758;39.572;2.652;2023-12-20T00:55:52;12.43;;;4.28;;
68449;SDS011;67758;39.572;2.652;2023-12-20T00:58:37;8.63;;;3.73;;
68449;SDS011;67758;39.572;2.652;2023-12-20T01:01:22;10.15;;;3.47;;
68449;SDS011;67758;39.572;2.652;2023-12-20T01:04:06;9.57;;;3.33;;
68449;SDS011;67758;39.572;2.652;2023-12-20T01:06:51;9.32;;;3.65;;
68449;SDS011;67758;39.572;2.652;2023-12-20T01:09:36;13.18;;;4.18;;
68449;SDS011;67758;39.572;2.652;2023-12-20T01:12:20;11.40;;;3.80;;
68449;SDS011;67758;39.572;2.652;2023-12-20T01:15:05;11.82;;;3.92;;
68449;SDS011;67758;39.572;2.652;2023-12-20T01:17:50;12.88;;;3.70;;
68449;SDS011;67758;39.572;2.652;2023-12-20T01:20:35;12.52;;;3.92;;
68449;SDS011;67758;39.572;2.652;2023-12-20T01:23:19;15.85;;;4.25;;
68449;SDS011;67758;39.572;2.652;2023-12-20T01:26:04;10.60;;;3.90;;
68449;SDS011;67758;39.572;2.652;2023-12-20T01:28:49;21.92;;;4.07;;
68449;SDS011;67758;39.572;2.652;2023-12-20T01:31:33;13.15;;;3.65;;
68449;SDS011;67758;39.572;2.652;2023-12-20T01:34:17;12.13;;;3.55;;
68449;SDS011;67758;39.572;2.652;2023-12-20T01:37:02;10.05;;;2.95;;
68449;SDS011;67758;39.572;2.652;2023-12-20T01:39:46;9.17;;;2.87;;
68449;SDS011;67758;39.572;2.652;2023-12-20T01:42:31;8.23;;;2.17;;
68449;SDS011;67758;39.572;2.652;2023-12-20T01:45:16;6.18;;;1.45;;
68449;SDS011;67758;39.572;2.652;2023-12-20T01:48:00;10.48;;;1.58;;
68449;SDS011;67758;39.572;2.652;2023-12-20T01:50:46;7.85;;;1.67;;
68449;SDS011;67758;39.572;2.652;2023-12-20T01:53:30;8.23;;;1.83;;
68449;SDS011;67758;39.572;2.652;2023-12-20T01:56:16;6.88;;;1.60;;
68449;SDS011;67758;39.572;2.652;2023-12-20T01:59:01;6.65;;;1.38;;
68449;SDS011;67758;39.572;2.652;2023-12-20T02:01:46;6.18;;;1.60;;
68449;SDS011;67758;39.572;2.652;2023-12-20T02:04:30;7.10;;;1.45;;
68449;SDS011;67758;39.572;2.652;2023-12-20T02:07:15;6.90;;;1.47;;
68449;SDS011;67758;39.572;2.652;2023-12-20T02:09:59;8.95;;;1.70;;
68449;SDS011;67758;39.572;2.652;2023-12-20T02:12:47;9.38;;;1.13;;
68449;SDS011;67758;39.572;2.652;2023-12-20T02:15:32;6.53;;;1.50;;
68449;SDS011;67758;39.572;2.652;2023-12-20T02:18:16;6.53;;;1.30;;
68449;SDS011;67758;39.572;2.652;2023-12-20T02:21:01;6.70;;;1.53;;
68449;SDS011;67758;39.572;2.652;2023-12-20T02:23:45;8.32;;;1.70;;
68449;SDS011;67758;39.572;2.652;2023-12-20T02:26:31;7.10;;;1.45;;
68449;SDS011;67758;39.572;2.652;2023-12-20T02:29:16;7.53;;;1.40;;
68449;SDS011;67758;39.572;2.652;2023-12-20T02:32:01;5.80;;;1.27;;
68449;SDS011;67758;39.572;2.652;2023-12-20T02:34:47;5.97;;;1.20;;
68449;SDS011;67758;39.572;2.652;2023-12-20T02:37:32;5.03;;;1.02;;
68449;SDS011;67758;39.572;2.652;2023-12-20T02:40:18;4.85;;;1.10;;
68449;SDS011;67758;39.572;2.652;2023-12-20T02:43:02;6.65;;;1.08;;
68449;SDS011;67758;39.572;2.652;2023-12-20T02:45:46;5.22;;;1.02;;
68449;SDS011;67758;39.572;2.652;2023-12-20T02:48:31;7.07;;;1.40;;
68449;SDS011;67758;39.572;2.652;2023-12-20T02:51:15;5.97;;;1.10;;
68449;SDS011;67758;39.572;2.652;2023-12-20T02:54:00;7.18;;;1.00;;
68449;SDS011;67758;39.572;2.652;2023-12-20T02:56:44;7.57;;;1.15;;
68449;SDS011;67758;39.572;2.652;2023-12-20T02:59:29;7.05;;;1.00;;
68449;SDS011;67758;39.572;2.652;2023-12-20T03:02:13;6.70;;;0.97;;
68449;SDS011;67758;39.572;2.652;2023-12-20T03:04:58;6.10;;;1.08;;
68449;SDS011;67758;39.572;2.652;2023-12-20T03:07:44;6.05;;;1.45;;
68449;SDS011;67758;39.572;2.652;2023-12-20T03:10:30;5.68;;;1.10;;
68449;SDS011;67758;39.572;2.652;2023-12-20T03:13:14;5.00;;;0.93;;
68449;SDS011;67758;39.572;2.652;2023-12-20T03:15:58;6.77;;;1.20;;
68449;SDS011;67758;39.572;2.652;2023-12-20T03:18:43;6.35;;;0.95;;
68449;SDS011;67758;39.572;2.652;2023-12-20T03:21:27;6.25;;;1.30;;
68449;SDS011;67758;39.572;2.652;2023-12-20T03:24:12;6.35;;;1.20;;
68449;SDS011;67758;39.572;2.652;2023-12-20T03:26:56;5.85;;;0.90;;
68449;SDS011;67758;39.572;2.652;2023-12-20T03:29:41;7.60;;;1.10;;
68449;SDS011;67758;39.572;2.652;2023-12-20T03:32:25;4.65;;;0.90;;
68449;SDS011;67758;39.572;2.652;2023-12-20T03:35:10;5.22;;;1.02;;
68449;SDS011;67758;39.572;2.652;2023-12-20T03:37:55;5.15;;;1.00;;
68449;SDS011;67758;39.572;2.652;2023-12-20T03:40:40;9.40;;;1.10;;
68449;SDS011;67758;39.572;2.652;2023-12-20T03:43:25;5.17;;;0.90;;
68449;SDS011;67758;39.572;2.652;2023-12-20T03:46:09;5.45;;;0.90;;
68449;SDS011;67758;39.572;2.652;2023-12-20T03:48:54;5.47;;;0.65;;
68449;SDS011;67758;39.572;2.652;2023-12-20T03:51:38;3.75;;;0.68;;
68449;SDS011;67758;39.572;2.652;2023-12-20T03:54:23;4.60;;;0.68;;
68449;SDS011;67758;39.572;2.652;2023-12-20T03:57:08;4.23;;;0.50;;
68449;SDS011;67758;39.572;2.652;2023-12-20T03:59:52;6.30;;;0.55;;
68449;SDS011;67758;39.572;2.652;2023-12-20T04:02:37;3.97;;;0.50;;
68449;SDS011;67758;39.572;2.652;2023-12-20T04:05:22;2.58;;;0.40;;
68449;SDS011;67758;39.572;2.652;2023-12-20T04:08:06;3.42;;;0.60;;
68449;SDS011;67758;39.572;2.652;2023-12-20T04:10:51;2.00;;;0.20;;
68449;SDS011;67758;39.572;2.652;2023-12-20T04:13:36;4.10;;;0.40;;
68449;SDS011;67758;39.572;2.652;2023-12-20T04:16:20;4.70;;;0.40;;
68449;SDS011;67758;39.572;2.652;2023-12-20T04:19:05;5.18;;;0.80;;
68449;SDS011;67758;39.572;2.652;2023-12-20T04:21:49;2.80;;;0.40;;
68449;SDS011;67758;39.572;2.652;2023-12-20T04:24:34;4.23;;;0.30;;
68449;SDS011;67758;39.572;2.652;2023-12-20T04:27:18;6.07;;;0.68;;
68449;SDS011;67758;39.572;2.652;2023-12-20T04:30:03;5.10;;;0.60;;
68449;SDS011;67758;39.572;2.652;2023-12-20T04:32:54;5.40;;;0.75;;
68449;SDS011;67758;39.572;2.652;2023-12-20T04:35:40;6.45;;;0.77;;
68449;SDS011;67758;39.572;2.652;2023-12-20T04:38:26;6.07;;;0.67;;
68449;SDS011;67758;39.572;2.652;2023-12-20T04:41:14;10.93;;;0.75;;
68449;SDS011;67758;39.572;2.652;2023-12-20T04:43:59;4.65;;;0.40;;
68449;SDS011;67758;39.572;2.652;2023-12-20T04:46:44;6.15;;;0.70;;
68449;SDS011;67758;39.572;2.652;2023-12-20T04:49:29;3.88;;;0.50;;
68449;SDS011;67758;39.572;2.652;2023-12-20T04:52:13;3.73;;;0.70;;
68449;SDS011;67758;39.572;2.652;2023-12-20T04:54:58;6.10;;;0.63;;
68449;SDS011;67758;39.572;2.652;2023-12-20T04:57:42;5.25;;;0.82;;
68449;SDS011;67758;39.572;2.652;2023-12-20T05:00:27;4.85;;;0.60;;
68449;SDS011;67758;39.572;2.652;2023-12-20T05:03:27;6.20;;;1.00;;
68449;SDS011;67758;39.572;2.652;2023-12-20T05:09:39;5.60;;;0.95;;
68449;SDS011;67758;39.572;2.652;2023-12-20T05:12:23;4.90;;;0.75;;
68449;SDS011;67758;39.572;2.652;2023-12-20T05:15:08;6.85;;;0.80;;
68449;SDS011;67758;39.572;2.652;2023-12-20T05:17:52;6.00;;;0.70;;
68449;SDS011;67758;39.572;2.652;2023-12-20T05:20:36;8.20;;;0.90;;
68449;SDS011;67758;39.572;2.652;2023-12-20T05:23:21;5.82;;;1.10;;
68449;SDS011;67758;39.572;2.652;2023-12-20T05:26:05;5.25;;;0.80;;
68449;SDS011;67758;39.572;2.652;2023-12-20T05:28:50;7.15;;;1.65;;
68449;SDS011;67758;39.572;2.652;2023-12-20T05:31:34;9.85;;;1.33;;
68449;SDS011;67758;39.572;2.652;2023-12-20T05:34:19;12.73;;;1.33;;
68449;SDS011;67758;39.572;2.652;2023-12-20T05:37:04;10.00;;;1.45;;
68449;SDS011;67758;39.572;2.652;2023-12-20T05:39:48;7.60;;;1.10;;
68449;SDS011;67758;39.572;2.652;2023-12-20T05:42:33;7.68;;;1.20;;
68449;SDS011;67758;39.572;2.652;2023-12-20T05:45:17;7.00;;;1.23;;
68449;SDS011;67758;39.572;2.652;2023-12-20T05:48:02;6.63;;;1.30;;
68449;SDS011;67758;39.572;2.652;2023-12-20T05:50:49;8.73;;;1.48;;
68449;SDS011;67758;39.572;2.652;2023-12-20T05:53:43;6.85;;;1.00;;
68449;SDS011;67758;39.572;2.652;2023-12-20T05:56:28;6.07;;;1.63;;
68449;SDS011;67758;39.572;2.652;2023-12-20T05:59:12;7.63;;;1.42;;
68449;SDS011;67758;39.572;2.652;2023-12-20T06:01:57;5.70;;;1.37;;
68449;SDS011;67758;39.572;2.652;2023-12-20T06:04:42;9.63;;;1.20;;
68449;SDS011;67758;39.572;2.652;2023-12-20T06:07:27;9.18;;;1.45;;
68449;SDS011;67758;39.572;2.652;2023-12-20T06:10:12;6.55;;;1.13;;
68449;SDS011;67758;39.572;2.652;2023-12-20T06:12:57;6.47;;;1.52;;
68449;SDS011;67758;39.572;2.652;2023-12-20T06:15:44;6.53;;;1.30;;
68449;SDS011;67758;39.572;2.652;2023-12-20T06:18:28;8.52;;;1.23;;
68449;SDS011;67758;39.572;2.652;2023-12-20T06:21:12;5.90;;;1.10;;
68449;SDS011;67758;39.572;2.652;2023-12-20T06:23:58;8.68;;;1.85;;
68449;SDS011;67758;39.572;2.652;2023-12-20T06:26:43;5.90;;;1.77;;
68449;SDS011;67758;39.572;2.652;2023-12-20T06:29:32;7.00;;;1.50;;
68449;SDS011;67758;39.572;2.652;2023-12-20T06:32:18;6.50;;;1.48;;
68449;SDS011;67758;39.572;2.652;2023-12-20T06:35:02;7.72;;;1.67;;
68449;SDS011;67758;39.572;2.652;2023-12-20T06:37:48;6.15;;;1.27;;
68449;SDS011;67758;39.572;2.652;2023-12-20T06:40:33;6.28;;;1.50;;
68449;SDS011;67758;39.572;2.652;2023-12-20T06:43:20;8.97;;;1.50;;
68449;SDS011;67758;39.572;2.652;2023-12-20T06:46:05;7.22;;;1.20;;
68449;SDS011;67758;39.572;2.652;2023-12-20T06:48:49;7.70;;;1.52;;
68449;SDS011;67758;39.572;2.652;2023-12-20T06:51:33;5.40;;;1.05;;
68449;SDS011;67758;39.572;2.652;2023-12-20T06:54:18;10.82;;;1.77;;
68449;SDS011;67758;39.572;2.652;2023-12-20T06:57:03;9.00;;;1.60;;
68449;SDS011;67758;39.572;2.652;2023-12-20T06:59:48;7.00;;;1.27;;
68449;SDS011;67758;39.572;2.652;2023-12-20T07:02:33;10.13;;;1.33;;
68449;SDS011;67758;39.572;2.652;2023-12-20T07:05:17;5.45;;;1.00;;
68449;SDS011;67758;39.572;2.652;2023-12-20T07:08:03;8.90;;;1.30;;
68449;SDS011;67758;39.572;2.652;2023-12-20T07:10:48;7.97;;;1.30;;
68449;SDS011;67758;39.572;2.652;2023-12-20T07:13:32;8.13;;;1.05;;
68449;SDS011;67758;39.572;2.652;2023-12-20T07:16:17;10.07;;;1.50;;
68449;SDS011;67758;39.572;2.652;2023-12-20T07:19:01;8.32;;;1.15;;
68449;SDS011;67758;39.572;2.652;2023-12-20T07:21:46;6.38;;;1.15;;
68449;SDS011;67758;39.572;2.652;2023-12-20T07:24:30;6.77;;;1.17;;
68449;SDS011;67758;39.572;2.652;2023-12-20T07:27:15;6.15;;;1.10;;
68449;SDS011;67758;39.572;2.652;2023-12-20T07:30:00;7.88;;;1.30;;
68449;SDS011;67758;39.572;2.652;2023-12-20T07:32:44;7.38;;;1.60;;
68449;SDS011;67758;39.572;2.652;2023-12-20T07:35:29;6.32;;;1.17;;
68449;SDS011;67758;39.572;2.652;2023-12-20T07:38:13;9.00;;;1.00;;
68449;SDS011;67758;39.572;2.652;2023-12-20T07:40:58;11.50;;;1.45;;
68449;SDS011;67758;39.572;2.652;2023-12-20T07:43:42;8.48;;;1.50;;
68449;SDS011;67758;39.572;2.652;2023-12-20T07:46:26;13.10;;;1.45;;
68449;SDS011;67758;39.572;2.652;2023-12-20T07:49:11;9.02;;;1.92;;
68449;SDS011;67758;39.572;2.652;2023-12-20T07:51:55;8.83;;;1.63;;
68449;SDS011;67758;39.572;2.652;2023-12-20T07:54:39;8.18;;;1.58;;
68449;SDS011;67758;39.572;2.652;2023-12-20T07:57:24;8.68;;;1.85;;
68449;SDS011;67758;39.572;2.652;2023-12-20T08:00:08;10.75;;;1.52;;
68449;SDS011;67758;39.572;2.652;2023-12-20T08:02:53;10.68;;;1.58;;
68449;SDS011;67758;39.572;2.652;2023-12-20T08:05:37;12.60;;;1.83;;
68449;SDS011;67758;39.572;2.652;2023-12-20T08:08:26;9.43;;;1.70;;
68449;SDS011;67758;39.572;2.652;2023-12-20T08:11:10;8.38;;;1.48;;
68449;SDS011;67758;39.572;2.652;2023-12-20T08:13:55;7.53;;;1.92;;
68449;SDS011;67758;39.572;2.652;2023-12-20T08:16:39;6.78;;;1.52;;
68449;SDS011;67758;39.572;2.652;2023-12-20T08:19:24;8.83;;;1.83;;
68449;SDS011;67758;39.572;2.652;2023-12-20T08:22:10;10.20;;;2.85;;
68449;SDS011;67758;39.572;2.652;2023-12-20T08:24:55;9.05;;;2.70;;
68449;SDS011;67758;39.572;2.652;2023-12-20T08:27:40;13.15;;;2.80;;
68449;SDS011;67758;39.572;2.652;2023-12-20T08:30:25;15.10;;;3.35;;
68449;SDS011;67758;39.572;2.652;2023-12-20T08:33:09;14.03;;;3.70;;
68449;SDS011;67758;39.572;2.652;2023-12-20T08:35:58;13.07;;;4.43;;
68449;SDS011;67758;39.572;2.652;2023-12-20T08:38:42;14.43;;;4.43;;
68449;SDS011;67758;39.572;2.652;2023-12-20T08:41:27;17.77;;;3.50;;
68449;SDS011;67758;39.572;2.652;2023-12-20T08:44:11;10.88;;;3.50;;
68449;SDS011;67758;39.572;2.652;2023-12-20T08:46:56;14.33;;;4.13;;
68449;SDS011;67758;39.572;2.652;2023-12-20T08:49:41;13.68;;;3.90;;
68449;SDS011;67758;39.572;2.652;2023-12-20T08:52:25;12.30;;;3.88;;
68449;SDS011;67758;39.572;2.652;2023-12-20T08:55:11;14.07;;;2.95;;
68449;SDS011;67758;39.572;2.652;2023-12-20T08:57:56;10.85;;;3.10;;
68449;SDS011;67758;39.572;2.652;2023-12-20T09:00:41;13.30;;;3.40;;
68449;SDS011;67758;39.572;2.652;2023-12-20T09:03:25;10.98;;;2.90;;
68449;SDS011;67758;39.572;2.652;2023-12-20T09:06:09;11.30;;;3.38;;
68449;SDS011;67758;39.572;2.652;2023-12-20T09:08:53;13.27;;;3.78;;
68449;SDS011;67758;39.572;2.652;2023-12-20T09:11:38;14.15;;;3.92;;
68449;SDS011;67758;39.572;2.652;2023-12-20T09:14:21;15.87;;;5.40;;
68449;SDS011;67758;39.572;2.652;2023-12-20T09:17:06;12.98;;;4.38;;
68449;SDS011;67758;39.572;2.652;2023-12-20T09:19:52;14.90;;;4.32;;
68449;SDS011;67758;39.572;2.652;2023-12-20T09:22:37;14.38;;;4.55;;
68449;SDS011;67758;39.572;2.652;2023-12-20T09:25:23;13.73;;;3.58;;
68449;SDS011;67758;39.572;2.652;2023-12-20T09:28:07;16.90;;;4.60;;
68449;SDS011;67758;39.572;2.652;2023-12-20T09:30:52;14.40;;;4.15;;
68449;SDS011;67758;39.572;2.652;2023-12-20T09:33:36;12.73;;;4.63;;
68449;SDS011;67758;39.572;2.652;2023-12-20T09:36:21;12.82;;;4.35;;
68449;SDS011;67758;39.572;2.652;2023-12-20T09:39:05;14.35;;;4.35;;
68449;SDS011;67758;39.572;2.652;2023-12-20T09:42:02;10.57;;;3.60;;
68449;SDS011;67758;39.572;2.652;2023-12-20T09:44:48;12.20;;;3.13;;
68449;SDS011;67758;39.572;2.652;2023-12-20T09:47:32;7.28;;;2.10;;
68449;SDS011;67758;39.572;2.652;2023-12-20T09:50:17;15.30;;;2.92;;
68449;SDS011;67758;39.572;2.652;2023-12-20T09:53:03;10.65;;;2.38;;
68449;SDS011;67758;39.572;2.652;2023-12-20T09:55:48;10.97;;;3.10;;
68449;SDS011;67758;39.572;2.652;2023-12-20T09:58:36;8.93;;;2.90;;
68449;SDS011;67758;39.572;2.652;2023-12-20T10:01:21;12.93;;;3.15;;
68449;SDS011;67758;39.572;2.652;2023-12-20T10:04:10;12.60;;;2.80;;
68449;SDS011;67758;39.572;2.652;2023-12-20T10:06:56;11.93;;;3.80;;
68449;SDS011;67758;39.572;2.652;2023-12-20T10:09:46;16.07;;;4.07;;
68449;SDS011;67758;39.572;2.652;2023-12-20T10:12:31;12.20;;;3.67;;
68449;SDS011;67758;39.572;2.652;2023-12-20T10:15:16;8.48;;;3.40;;
68449;SDS011;67758;39.572;2.652;2023-12-20T10:18:00;14.48;;;4.45;;
68449;SDS011;67758;39.572;2.652;2023-12-20T10:20:45;15.57;;;3.13;;
68449;SDS011;67758;39.572;2.652;2023-12-20T10:23:30;17.30;;;3.87;;
68449;SDS011;67758;39.572;2.652;2023-12-20T10:26:21;14.52;;;4.63;;
68449;SDS011;67758;39.572;2.652;2023-12-20T10:29:09;13.10;;;4.47;;
68449;SDS011;67758;39.572;2.652;2023-12-20T10:31:54;16.67;;;5.10;;
68449;SDS011;67758;39.572;2.652;2023-12-20T10:34:41;10.93;;;4.40;;
68449;SDS011;67758;39.572;2.652;2023-12-20T10:37:25;21.35;;;5.28;;
68449;SDS011;67758;39.572;2.652;2023-12-20T10:40:10;14.65;;;4.03;;
68449;SDS011;67758;39.572;2.652;2023-12-20T10:42:57;8.15;;;3.40;;
68449;SDS011;67758;39.572;2.652;2023-12-20T10:45:42;8.20;;;3.00;;
68449;SDS011;67758;39.572;2.652;2023-12-20T10:48:29;12.40;;;3.00;;
68449;SDS011;67758;39.572;2.652;2023-12-20T10:51:17;9.40;;;2.53;;
68449;SDS011;67758;39.572;2.652;2023-12-20T10:54:02;9.20;;;3.42;;
68449;SDS011;67758;39.572;2.652;2023-12-20T10:56:47;12.30;;;4.05;;
68449;SDS011;67758;39.572;2.652;2023-12-20T10:59:37;10.23;;;4.13;;
68449;SDS011;67758;39.572;2.652;2023-12-20T11:02:31;19.15;;;7.05;;
68449;SDS011;67758;39.572;2.652;2023-12-20T11:05:26;12.65;;;5.00;;
68449;SDS011;67758;39.572;2.652;2023-12-20T11:08:16;11.35;;;4.97;;
68449;SDS011;67758;39.572;2.652;2023-12-20T11:14:18;11.18;;;4.00;;
68449;SDS011;67758;39.572;2.652;2023-12-20T11:17:09;9.75;;;3.97;;
68449;SDS011;67758;39.572;2.652;2023-12-20T11:22:51;13.68;;;4.13;;
68449;SDS011;67758;39.572;2.652;2023-12-20T11:28:48;13.27;;;3.35;;
68449;SDS011;67758;39.572;2.652;2023-12-20T11:31:39;10.18;;;3.20;;
68449;SDS011;67758;39.572;2.652;2023-12-20T11:34:26;9.10;;;2.47;;
68449;SDS011;67758;39.572;2.652;2023-12-20T11:37:14;8.68;;;2.10;;
68449;SDS011;67758;39.572;2.652;2023-12-20T11:40:02;8.52;;;2.97;;
68449;SDS011;67758;39.572;2.652;2023-12-20T11:42:48;10.50;;;3.20;;
68449;SDS011;67758;39.572;2.652;2023-12-20T11:45:49;11.63;;;2.40;;
68449;SDS011;67758;39.572;2.652;2023-12-20T11:48:39;7.22;;;2.63;;
68449;SDS011;67758;39.572;2.652;2023-12-20T11:51:24;10.57;;;2.45;;
68449;SDS011;67758;39.572;2.652;2023-12-20T11:54:08;12.32;;;3.00;;
68449;SDS011;67758;39.572;2.652;2023-12-20T11:56:54;9.88;;;2.47;;
68449;SDS011;67758;39.572;2.652;2023-12-20T11:59:38;6.60;;;2.10;;
68449;SDS011;67758;39.572;2.652;2023-12-20T12:02:23;8.45;;;2.25;;
68449;SDS011;67758;39.572;2.652;2023-12-20T12:05:07;8.07;;;2.30;;
68449;SDS011;67758;39.572;2.652;2023-12-20T12:07:52;8.20;;;2.08;;
68449;SDS011;67758;39.572;2.652;2023-12-20T12:10:37;10.63;;;2.70;;
68449;SDS011;67758;39.572;2.652;2023-12-20T12:13:21;10.57;;;3.33;;
68449;SDS011;67758;39.572;2.652;2023-12-20T12:16:06;7.82;;;2.10;;
68449;SDS011;67758;39.572;2.652;2023-12-20T12:18:57;8.18;;;1.90;;
68449;SDS011;67758;39.572;2.652;2023-12-20T12:21:42;7.10;;;1.83;;
68449;SDS011;67758;39.572;2.652;2023-12-20T12:24:26;8.30;;;2.17;;
68449;SDS011;67758;39.572;2.652;2023-12-20T12:27:11;6.88;;;1.95;;
68449;SDS011;67758;39.572;2.652;2023-12-20T12:30:00;7.47;;;1.90;;
68449;SDS011;67758;39.572;2.652;2023-12-20T12:32:52;6.90;;;2.00;;
68449;SDS011;67758;39.572;2.652;2023-12-20T12:35:55;9.07;;;2.00;;
68449;SDS011;67758;39.572;2.652;2023-12-20T12:38:39;7.72;;;2.03;;
68449;SDS011;67758;39.572;2.652;2023-12-20T12:41:25;10.10;;;2.00;;
68449;SDS011;67758;39.572;2.652;2023-12-20T12:44:13;8.10;;;2.47;;
68449;SDS011;67758;39.572;2.652;2023-12-20T12:46:57;10.30;;;1.70;;
68449;SDS011;67758;39.572;2.652;2023-12-20T12:49:46;6.75;;;1.90;;
68449;SDS011;67758;39.572;2.652;2023-12-20T12:52:32;7.25;;;2.10;;
68449;SDS011;67758;39.572;2.652;2023-12-20T12:55:16;6.75;;;1.85;;
68449;SDS011;67758;39.572;2.652;2023-12-20T12:58:02;7.85;;;2.20;;
68449;SDS011;67758;39.572;2.652;2023-12-20T13:00:49;8.02;;;2.55;;
68449;SDS011;67758;39.572;2.652;2023-12-20T13:03:35;7.85;;;3.67;;
68449;SDS011;67758;39.572;2.652;2023-12-20T13:06:19;6.75;;;1.85;;
68449;SDS011;67758;39.572;2.652;2023-12-20T13:09:04;7.80;;;2.00;;
68449;SDS011;67758;39.572;2.652;2023-12-20T13:12:08;6.17;;;1.30;;
68449;SDS011;67758;39.572;2.652;2023-12-20T13:14:53;8.35;;;1.50;;
68449;SDS011;67758;39.572;2.652;2023-12-20T13:17:37;5.72;;;1.40;;
68449;SDS011;67758;39.572;2.652;2023-12-20T13:20:22;7.55;;;1.70;;
68449;SDS011;67758;39.572;2.652;2023-12-20T13:23:06;8.30;;;1.85;;
68449;SDS011;67758;39.572;2.652;2023-12-20T13:25:51;7.87;;;1.57;;
68449;SDS011;67758;39.572;2.652;2023-12-20T13:28:36;7.95;;;1.58;;
68449;SDS011;67758;39.572;2.652;2023-12-20T13:31:20;8.20;;;1.48;;
68449;SDS011;67758;39.572;2.652;2023-12-20T13:34:05;6.90;;;1.20;;
68449;SDS011;67758;39.572;2.652;2023-12-20T13:36:53;8.70;;;1.98;;
68449;SDS011;67758;39.572;2.652;2023-12-20T13:39:43;8.93;;;2.15;;
68449;SDS011;67758;39.572;2.652;2023-12-20T13:42:28;7.70;;;1.67;;
68449;SDS011;67758;39.572;2.652;2023-12-20T13:45:15;6.60;;;1.60;;
68449;SDS011;67758;39.572;2.652;2023-12-20T13:48:00;11.35;;;1.80;;
68449;SDS011;67758;39.572;2.652;2023-12-20T13:50:44;7.28;;;1.33;;
68449;SDS011;67758;39.572;2.652;2023-12-20T13:53:28;7.05;;;1.70;;
68449;SDS011;67758;39.572;2.652;2023-12-20T13:56:13;6.93;;;1.30;;
68449;SDS011;67758;39.572;2.652;2023-12-20T13:58:58;5.93;;;1.58;;
68449;SDS011;67758;39.572;2.652;2023-12-20T14:01:43;6.43;;;1.67;;
68449;SDS011;67758;39.572;2.652;2023-12-20T14:04:29;6.82;;;1.52;;
68449;SDS011;67758;39.572;2.652;2023-12-20T14:07:14;7.40;;;1.58;;
68449;SDS011;67758;39.572;2.652;2023-12-20T14:09:59;6.97;;;2.60;;
68449;SDS011;67758;39.572;2.652;2023-12-20T14:12:43;8.20;;;1.70;;
68449;SDS011;67758;39.572;2.652;2023-12-20T14:15:28;11.82;;;1.55;;
68449;SDS011;67758;39.572;2.652;2023-12-20T14:18:13;7.45;;;1.70;;
68449;SDS011;67758;39.572;2.652;2023-12-20T14:20:58;9.43;;;1.63;;
68449;SDS011;67758;39.572;2.652;2023-12-20T14:23:42;13.02;;;2.30;;
68449;SDS011;67758;39.572;2.652;2023-12-20T14:26:27;10.80;;;2.40;;
68449;SDS011;67758;39.572;2.652;2023-12-20T14:29:11;11.35;;;3.58;;
68449;SDS011;67758;39.572;2.652;2023-12-20T14:31:56;10.45;;;3.30;;
68449;SDS011;67758;39.572;2.652;2023-12-20T14:34:40;11.05;;;3.20;;
68449;SDS011;67758;39.572;2.652;2023-12-20T14:37:23;9.77;;;3.25;;
68449;SDS011;67758;39.572;2.652;2023-12-20T14:40:08;9.48;;;3.47;;
68449;SDS011;67758;39.572;2.652;2023-12-20T14:42:58;12.05;;;4.70;;
68449;SDS011;67758;39.572;2.652;2023-12-20T14:45:44;12.30;;;3.63;;
68449;SDS011;67758;39.572;2.652;2023-12-20T14:48:28;13.53;;;4.60;;
68449;SDS011;67758;39.572;2.652;2023-12-20T14:51:13;10.68;;;3.90;;
68449;SDS011;67758;39.572;2.652;2023-12-20T14:53:57;11.55;;;3.80;;
68449;SDS011;67758;39.572;2.652;2023-12-20T14:56:41;9.43;;;3.60;;
68449;SDS011;67758;39.572;2.652;2023-12-20T14:59:25;11.70;;;4.30;;
68449;SDS011;67758;39.572;2.652;2023-12-20T15:02:10;8.83;;;3.80;;
68449;SDS011;67758;39.572;2.652;2023-12-20T15:04:56;13.60;;;4.07;;
68449;SDS011;67758;39.572;2.652;2023-12-20T15:07:40;12.40;;;4.45;;
68449;SDS011;67758;39.572;2.652;2023-12-20T15:10:26;12.75;;;4.00;;
68449;SDS011;67758;39.572;2.652;2023-12-20T15:13:10;12.05;;;4.47;;
68449;SDS011;67758;39.572;2.652;2023-12-20T15:15:56;11.90;;;4.30;;
68449;SDS011;67758;39.572;2.652;2023-12-20T15:18:41;12.30;;;4.13;;
68449;SDS011;67758;39.572;2.652;2023-12-20T15:21:26;11.77;;;4.05;;
68449;SDS011;67758;39.572;2.652;2023-12-20T15:24:15;11.32;;;4.80;;
68449;SDS011;67758;39.572;2.652;2023-12-20T15:27:02;13.52;;;4.10;;
68449;SDS011;67758;39.572;2.652;2023-12-20T15:29:51;9.90;;;3.17;;
68449;SDS011;67758;39.572;2.652;2023-12-20T15:32:38;10.48;;;3.67;;
68449;SDS011;67758;39.572;2.652;2023-12-20T15:35:25;9.45;;;3.83;;
68449;SDS011;67758;39.572;2.652;2023-12-20T15:38:09;13.95;;;4.18;;
68449;SDS011;67758;39.572;2.652;2023-12-20T15:40:53;9.98;;;3.67;;
68449;SDS011;67758;39.572;2.652;2023-12-20T15:43:39;14.80;;;4.17;;
68449;SDS011;67758;39.572;2.652;2023-12-20T15:46:22;12.95;;;3.60;;
68449;SDS011;67758;39.572;2.652;2023-12-20T15:49:07;12.35;;;3.42;;
68449;SDS011;67758;39.572;2.652;2023-12-20T15:51:51;10.52;;;3.70;;
68449;SDS011;67758;39.572;2.652;2023-12-20T15:54:36;8.55;;;3.30;;
68449;SDS011;67758;39.572;2.652;2023-12-20T15:57:22;10.57;;;3.77;;
68449;SDS011;67758;39.572;2.652;2023-12-20T16:00:07;8.90;;;3.22;;
68449;SDS011;67758;39.572;2.652;2023-12-20T16:02:51;11.45;;;4.30;;
68449;SDS011;67758;39.572;2.652;2023-12-20T16:05:36;12.93;;;3.60;;
68449;SDS011;67758;39.572;2.652;2023-12-20T16:08:21;9.85;;;3.50;;
68449;SDS011;67758;39.572;2.652;2023-12-20T16:11:05;11.27;;;3.80;;
68449;SDS011;67758;39.572;2.652;2023-12-20T16:13:50;10.57;;;3.70;;
68449;SDS011;67758;39.572;2.652;2023-12-20T16:16:34;13.20;;;4.57;;
68449;SDS011;67758;39.572;2.652;2023-12-20T16:19:19;9.23;;;4.07;;
68449;SDS011;67758;39.572;2.652;2023-12-20T16:22:04;9.80;;;3.58;;
68449;SDS011;67758;39.572;2.652;2023-12-20T16:24:48;11.90;;;4.20;;
68449;SDS011;67758;39.572;2.652;2023-12-20T16:27:33;9.60;;;4.32;;
68449;SDS011;67758;39.572;2.652;2023-12-20T16:30:18;16.02;;;4.45;;
68449;SDS011;67758;39.572;2.652;2023-12-20T16:33:03;15.13;;;4.85;;
68449;SDS011;67758;39.572;2.652;2023-12-20T16:35:47;12.52;;;5.15;;
68449;SDS011;67758;39.572;2.652;2023-12-20T16:38:31;14.23;;;5.60;;
68449;SDS011;67758;39.572;2.652;2023-12-20T16:41:15;13.10;;;5.75;;
68449;SDS011;67758;39.572;2.652;2023-12-20T16:43:59;17.02;;;5.70;;